Terminal Aerodrome Forecast
Issued by NWS

Home | Current Version | Previous Version | Text Only | Print | Product List | Glossary On
Versions: 1 2 3 4 5 6 7 8 9 10 11 12 13 14 15 16 17 18 19 20 21 22
789
FTUS43 KGRR 220530
TAFAZO
TAF
KAZO 220530Z 2206/2306 00000KT 1/4SM FG VV001
     FM221700 02004KT 2SM BR OVC015
     FM230300 02003KT 1SM BR BKN015=

USA.gov is the U.S. government's official web portal to all federal, state and local government web resources and services.